sensor_id;sensor_type;location;lat;lon;timestamp;temperature;humidity
64997;SHT31;51545;51.568;6.998;2023-02-22T00:00:28;7.34;96.35
64997;SHT31;51545;51.568;6.998;2023-02-22T00:03:17;7.30;96.44
64997;SHT31;51545;51.568;6.998;2023-02-22T00:05:50;7.34;96.42
64997;SHT31;51545;51.568;6.998;2023-02-22T00:08:20;7.37;96.44
64997;SHT31;51545;51.568;6.998;2023-02-22T00:10:46;7.26;96.40
64997;SHT31;51545;51.568;6.998;2023-02-22T00:13:16;7.26;96.57
64997;SHT31;51545;51.568;6.998;2023-02-22T00:15:43;7.27;96.52
64997;SHT31;51545;51.568;6.998;2023-02-22T00:18:13;7.21;96.35
64997;SHT31;51545;51.568;6.998;2023-02-22T00:20:40;7.04;96.05
64997;SHT31;51545;51.568;6.998;2023-02-22T00:23:07;6.93;96.04
64997;SHT31;51545;51.568;6.998;2023-02-22T00:25:37;6.71;95.94
64997;SHT31;51545;51.568;6.998;2023-02-22T00:28:03;6.59;96.14
64997;SHT31;51545;51.568;6.998;2023-02-22T00:30:30;6.42;96.18
64997;SHT31;51545;51.568;6.998;2023-02-22T00:32:56;6.35;96.42
64997;SHT31;51545;51.568;6.998;2023-02-22T00:35:26;6.27;96.41
64997;SHT31;51545;51.568;6.998;2023-02-22T00:37:55;6.20;96.49
64997;SHT31;51545;51.568;6.998;2023-02-22T00:40:24;6.13;96.49
64997;SHT31;51545;51.568;6.998;2023-02-22T00:42:52;6.02;96.37
64997;SHT31;51545;51.568;6.998;2023-02-22T00:45:20;5.92;96.42
64997;SHT31;51545;51.568;6.998;2023-02-22T00:47:48;5.85;96.56
64997;SHT31;51545;51.568;6.998;2023-02-22T00:50:17;5.72;96.35
64997;SHT31;51545;51.568;6.998;2023-02-22T00:52:44;5.61;96.65
64997;SHT31;51545;51.568;6.998;2023-02-22T00:55:14;5.51;96.59
64997;SHT31;51545;51.568;6.998;2023-02-22T00:57:42;5.48;96.79
64997;SHT31;51545;51.568;6.998;2023-02-22T01:00:13;5.43;96.77
64997;SHT31;51545;51.568;6.998;2023-02-22T01:03:06;5.41;96.84
64997;SHT31;51545;51.568;6.998;2023-02-22T01:05:35;5.33;96.80
64997;SHT31;51545;51.568;6.998;2023-02-22T01:08:02;5.28;96.76
64997;SHT31;51545;51.568;6.998;2023-02-22T01:10:33;5.26;96.75
64997;SHT31;51545;51.568;6.998;2023-02-22T01:12:59;5.24;96.73
64997;SHT31;51545;51.568;6.998;2023-02-22T01:15:29;5.15;96.67
64997;SHT31;51545;51.568;6.998;2023-02-22T01:17:55;5.17;96.83
64997;SHT31;51545;51.568;6.998;2023-02-22T01:20:23;5.00;96.56
64997;SHT31;51545;51.568;6.998;2023-02-22T01:22:54;4.93;96.74
64997;SHT31;51545;51.568;6.998;2023-02-22T01:25:24;4.84;96.66
64997;SHT31;51545;51.568;6.998;2023-02-22T01:27:52;4.68;96.60
64997;SHT31;51545;51.568;6.998;2023-02-22T01:30:20;4.60;96.82
64997;SHT31;51545;51.568;6.998;2023-02-22T01:32:48;4.54;97.11
64997;SHT31;51545;51.568;6.998;2023-02-22T01:35:16;4.74;97.95
64997;SHT31;51545;51.568;6.998;2023-02-22T01:37:44;4.82;98.02
64997;SHT31;51545;51.568;6.998;2023-02-22T01:40:21;4.77;98.01
64997;SHT31;51545;51.568;6.998;2023-02-22T01:42:53;5.00;98.84
64997;SHT31;51545;51.568;6.998;2023-02-22T01:48:01;5.23;98.97
64997;SHT31;51545;51.568;6.998;2023-02-22T01:50:34;5.33;98.98
64997;SHT31;51545;51.568;6.998;2023-02-22T01:53:03;5.34;98.91
64997;SHT31;51545;51.568;6.998;2023-02-22T01:55:31;5.38;99.09
64997;SHT31;51545;51.568;6.998;2023-02-22T01:57:59;5.47;99.25
64997;SHT31;51545;51.568;6.998;2023-02-22T02:00:27;5.50;99.37
64997;SHT31;51545;51.568;6.998;2023-02-22T02:02:59;5.55;99.72
64997;SHT31;51545;51.568;6.998;2023-02-22T02:05:32;5.69;99.93
64997;SHT31;51545;51.568;6.998;2023-02-22T02:08:03;5.72;99.90
64997;SHT31;51545;51.568;6.998;2023-02-22T02:10:37;5.71;99.99
64997;SHT31;51545;51.568;6.998;2023-02-22T02:13:03;5.72;99.99
64997;SHT31;51545;51.568;6.998;2023-02-22T02:15:30;5.72;99.99
64997;SHT31;51545;51.568;6.998;2023-02-22T02:17:58;5.71;99.99
64997;SHT31;51545;51.568;6.998;2023-02-22T02:20:43;5.68;99.99
64997;SHT31;51545;51.568;6.998;2023-02-22T02:29:13;5.81;99.99
64997;SHT31;51545;51.568;6.998;2023-02-22T02:34:49;5.81;99.99
64997;SHT31;51545;51.568;6.998;2023-02-22T02:40:11;5.72;99.99
64997;SHT31;51545;51.568;6.998;2023-02-22T02:45:22;5.64;99.99
64997;SHT31;51545;51.568;6.998;2023-02-22T02:47:54;5.61;99.99
64997;SHT31;51545;51.568;6.998;2023-02-22T02:50:57;5.65;99.99
64997;SHT31;51545;51.568;6.998;2023-02-22T02:53:17;5.68;99.99
64997;SHT31;51545;51.568;6.998;2023-02-22T02:55:46;5.62;99.99
64997;SHT31;51545;51.568;6.998;2023-02-22T02:58:17;5.62;99.99
64997;SHT31;51545;51.568;6.998;2023-02-22T03:00:44;5.68;99.99
64997;SHT31;51545;51.568;6.998;2023-02-22T03:11:30;5.74;99.99
64997;SHT31;51545;51.568;6.998;2023-02-22T03:22:05;5.90;99.99
64997;SHT31;51545;51.568;6.998;2023-02-22T03:24:43;5.90;99.99
64997;SHT31;51545;51.568;6.998;2023-02-22T03:27:27;5.93;99.99
64997;SHT31;51545;51.568;6.998;2023-02-22T03:29:59;5.99;99.99
64997;SHT31;51545;51.568;6.998;2023-02-22T03:32:34;5.99;99.99
64997;SHT31;51545;51.568;6.998;2023-02-22T03:35:09;6.05;99.99
64997;SHT31;51545;51.568;6.998;2023-02-22T03:37:39;6.06;99.99
64997;SHT31;51545;51.568;6.998;2023-02-22T03:40:12;6.03;99.99
64997;SHT31;51545;51.568;6.998;2023-02-22T03:42:47;6.06;99.99
64997;SHT31;51545;51.568;6.998;2023-02-22T03:45:16;5.96;99.99
64997;SHT31;51545;51.568;6.998;2023-02-22T03:47:46;5.88;99.99
64997;SHT31;51545;51.568;6.998;2023-02-22T03:52:50;6.02;99.99
64997;SHT31;51545;51.568;6.998;2023-02-22T03:55:17;6.02;99.99
64997;SHT31;51545;51.568;6.998;2023-02-22T03:57:50;6.07;99.99
64997;SHT31;51545;51.568;6.998;2023-02-22T04:00:20;6.11;99.99
64997;SHT31;51545;51.568;6.998;2023-02-22T04:02:49;6.13;99.99
64997;SHT31;51545;51.568;6.998;2023-02-22T04:05:15;6.07;99.99
64997;SHT31;51545;51.568;6.998;2023-02-22T04:07:41;6.05;99.99
64997;SHT31;51545;51.568;6.998;2023-02-22T04:10:06;6.06;99.99
64997;SHT31;51545;51.568;6.998;2023-02-22T04:12:33;6.06;99.99
64997;SHT31;51545;51.568;6.998;2023-02-22T04:14:59;5.99;99.99
64997;SHT31;51545;51.568;6.998;2023-02-22T04:17:25;6.00;99.99
64997;SHT31;51545;51.568;6.998;2023-02-22T04:19:50;5.99;99.99
64997;SHT31;51545;51.568;6.998;2023-02-22T04:22:16;6.02;99.99
64997;SHT31;51545;51.568;6.998;2023-02-22T04:24:42;5.99;99.99
64997;SHT31;51545;51.568;6.998;2023-02-22T04:27:07;5.92;99.99
64997;SHT31;51545;51.568;6.998;2023-02-22T04:29:32;5.98;99.99
64997;SHT31;51545;51.568;6.998;2023-02-22T04:31:58;5.90;99.99
64997;SHT31;51545;51.568;6.998;2023-02-22T04:34:23;5.88;99.99
64997;SHT31;51545;51.568;6.998;2023-02-22T04:36:49;5.83;99.99
64997;SHT31;51545;51.568;6.998;2023-02-22T04:39:14;5.75;99.99
64997;SHT31;51545;51.568;6.998;2023-02-22T04:41:40;5.75;99.99
64997;SHT31;51545;51.568;6.998;2023-02-22T04:44:05;5.67;99.99
64997;SHT31;51545;51.568;6.998;2023-02-22T04:46:31;5.62;99.99
64997;SHT31;51545;51.568;6.998;2023-02-22T04:48:56;5.64;99.99
64997;SHT31;51545;51.568;6.998;2023-02-22T04:51:22;5.50;99.99
64997;SHT31;51545;51.568;6.998;2023-02-22T04:53:48;5.64;99.99
64997;SHT31;51545;51.568;6.998;2023-02-22T04:56:16;5.65;99.99
64997;SHT31;51545;51.568;6.998;2023-02-22T04:58:42;5.65;99.99
64997;SHT31;51545;51.568;6.998;2023-02-22T05:01:07;5.67;99.99
64997;SHT31;51545;51.568;6.998;2023-02-22T05:03:33;5.51;99.99
64997;SHT31;51545;51.568;6.998;2023-02-22T05:05:58;5.50;99.99
64997;SHT31;51545;51.568;6.998;2023-02-22T05:08:23;5.54;99.99
64997;SHT31;51545;51.568;6.998;2023-02-22T05:10:49;5.54;99.99
64997;SHT31;51545;51.568;6.998;2023-02-22T05:13:14;5.57;99.99
64997;SHT31;51545;51.568;6.998;2023-02-22T05:15:40;5.61;99.99
64997;SHT31;51545;51.568;6.998;2023-02-22T05:18:05;5.60;99.99
64997;SHT31;51545;51.568;6.998;2023-02-22T05:20:33;5.60;99.99
64997;SHT31;51545;51.568;6.998;2023-02-22T05:22:59;5.65;99.99
64997;SHT31;51545;51.568;6.998;2023-02-22T05:25:26;5.62;99.99
64997;SHT31;51545;51.568;6.998;2023-02-22T05:27:53;5.61;99.99
64997;SHT31;51545;51.568;6.998;2023-02-22T05:30:21;5.61;99.99
64997;SHT31;51545;51.568;6.998;2023-02-22T05:32:48;5.55;99.99
64997;SHT31;51545;51.568;6.998;2023-02-22T05:35:14;5.58;99.99
64997;SHT31;51545;51.568;6.998;2023-02-22T05:37:40;5.55;99.99
64997;SHT31;51545;51.568;6.998;2023-02-22T05:40:06;5.55;99.99
64997;SHT31;51545;51.568;6.998;2023-02-22T05:42:32;5.52;99.99
64997;SHT31;51545;51.568;6.998;2023-02-22T05:44:57;5.50;99.99
64997;SHT31;51545;51.568;6.998;2023-02-22T05:47:24;5.55;99.99
64997;SHT31;51545;51.568;6.998;2023-02-22T05:49:50;5.60;99.99
64997;SHT31;51545;51.568;6.998;2023-02-22T05:52:15;5.68;99.99
64997;SHT31;51545;51.568;6.998;2023-02-22T05:54:41;5.74;99.99
64997;SHT31;51545;51.568;6.998;2023-02-22T05:57:06;5.68;99.99
64997;SHT31;51545;51.568;6.998;2023-02-22T05:59:32;5.69;99.99
64997;SHT31;51545;51.568;6.998;2023-02-22T06:01:57;5.58;99.99
64997;SHT31;51545;51.568;6.998;2023-02-22T06:04:23;5.60;99.99
64997;SHT31;51545;51.568;6.998;2023-02-22T06:06:48;5.54;99.99
64997;SHT31;51545;51.568;6.998;2023-02-22T06:09:13;5.54;99.99
64997;SHT31;51545;51.568;6.998;2023-02-22T06:11:39;5.40;99.99
64997;SHT31;51545;51.568;6.998;2023-02-22T06:14:04;5.48;99.99
64997;SHT31;51545;51.568;6.998;2023-02-22T06:16:30;5.51;99.99
64997;SHT31;51545;51.568;6.998;2023-02-22T06:18:56;5.50;99.99
64997;SHT31;51545;51.568;6.998;2023-02-22T06:21:22;5.48;99.99
64997;SHT31;51545;51.568;6.998;2023-02-22T06:23:47;5.47;99.99
64997;SHT31;51545;51.568;6.998;2023-02-22T06:26:16;5.35;99.99
64997;SHT31;51545;51.568;6.998;2023-02-22T06:28:42;5.24;99.99
64997;SHT31;51545;51.568;6.998;2023-02-22T06:31:07;5.38;99.99
64997;SHT31;51545;51.568;6.998;2023-02-22T06:33:33;5.26;99.99
64997;SHT31;51545;51.568;6.998;2023-02-22T06:35:58;5.26;99.99
64997;SHT31;51545;51.568;6.998;2023-02-22T06:38:24;5.31;99.99
64997;SHT31;51545;51.568;6.998;2023-02-22T06:40:51;5.44;99.99
64997;SHT31;51545;51.568;6.998;2023-02-22T06:43:19;5.48;99.99
64997;SHT31;51545;51.568;6.998;2023-02-22T06:45:45;5.47;99.99
64997;SHT31;51545;51.568;6.998;2023-02-22T06:48:11;5.41;99.99
64997;SHT31;51545;51.568;6.998;2023-02-22T06:50:36;5.38;99.99
64997;SHT31;51545;51.568;6.998;2023-02-22T06:53:02;5.37;99.99
64997;SHT31;51545;51.568;6.998;2023-02-22T06:55:29;5.44;99.99
64997;SHT31;51545;51.568;6.998;2023-02-22T06:57:56;5.50;99.99
64997;SHT31;51545;51.568;6.998;2023-02-22T07:00:22;5.48;99.99
64997;SHT31;51545;51.568;6.998;2023-02-22T07:02:49;5.45;99.99
64997;SHT31;51545;51.568;6.998;2023-02-22T07:05:16;5.45;99.99
64997;SHT31;51545;51.568;6.998;2023-02-22T07:07:43;5.47;99.99
64997;SHT31;51545;51.568;6.998;2023-02-22T07:10:17;5.47;99.99
64997;SHT31;51545;51.568;6.998;2023-02-22T07:12:46;5.34;99.99
64997;SHT31;51545;51.568;6.998;2023-02-22T07:15:13;5.47;99.99
64997;SHT31;51545;51.568;6.998;2023-02-22T07:17:39;5.47;99.99
64997;SHT31;51545;51.568;6.998;2023-02-22T07:20:05;5.44;99.99
64997;SHT31;51545;51.568;6.998;2023-02-22T07:22:32;5.40;99.99
64997;SHT31;51545;51.568;6.998;2023-02-22T07:24:57;5.41;99.99
64997;SHT31;51545;51.568;6.998;2023-02-22T07:27:24;5.41;99.99
64997;SHT31;51545;51.568;6.998;2023-02-22T07:29:49;5.33;99.99
64997;SHT31;51545;51.568;6.998;2023-02-22T07:32:15;5.35;99.99
64997;SHT31;51545;51.568;6.998;2023-02-22T07:34:40;5.52;99.99
64997;SHT31;51545;51.568;6.998;2023-02-22T07:37:07;5.65;99.99
64997;SHT31;51545;51.568;6.998;2023-02-22T07:39:32;5.67;99.99
64997;SHT31;51545;51.568;6.998;2023-02-22T07:41:58;5.75;99.99
64997;SHT31;51545;51.568;6.998;2023-02-22T07:44:24;5.52;99.99
64997;SHT31;51545;51.568;6.998;2023-02-22T07:46:50;5.57;99.99
64997;SHT31;51545;51.568;6.998;2023-02-22T07:49:15;5.72;99.99
64997;SHT31;51545;51.568;6.998;2023-02-22T07:51:41;5.86;99.99
64997;SHT31;51545;51.568;6.998;2023-02-22T07:54:07;5.89;99.99
64997;SHT31;51545;51.568;6.998;2023-02-22T07:56:32;5.83;99.99
64997;SHT31;51545;51.568;6.998;2023-02-22T07:58:58;5.68;99.99
64997;SHT31;51545;51.568;6.998;2023-02-22T08:01:25;5.71;99.99
64997;SHT31;51545;51.568;6.998;2023-02-22T08:03:51;5.75;99.99
64997;SHT31;51545;51.568;6.998;2023-02-22T08:06:17;5.78;99.99
64997;SHT31;51545;51.568;6.998;2023-02-22T08:08:45;5.81;99.99
64997;SHT31;51545;51.568;6.998;2023-02-22T08:11:10;5.88;99.99
64997;SHT31;51545;51.568;6.998;2023-02-22T08:13:37;5.93;99.99
64997;SHT31;51545;51.568;6.998;2023-02-22T08:16:03;6.11;99.99
64997;SHT31;51545;51.568;6.998;2023-02-22T08:18:28;6.10;99.99
64997;SHT31;51545;51.568;6.998;2023-02-22T08:20:54;6.13;99.99
64997;SHT31;51545;51.568;6.998;2023-02-22T08:23:21;6.33;99.99
64997;SHT31;51545;51.568;6.998;2023-02-22T08:25:49;6.33;99.99
64997;SHT31;51545;51.568;6.998;2023-02-22T08:28:16;6.27;99.99
64997;SHT31;51545;51.568;6.998;2023-02-22T08:30:44;6.33;99.99
64997;SHT31;51545;51.568;6.998;2023-02-22T08:33:10;6.46;99.99
64997;SHT31;51545;51.568;6.998;2023-02-22T08:35:38;6.61;99.99
64997;SHT31;51545;51.568;6.998;2023-02-22T08:38:05;6.64;99.99
64997;SHT31;51545;51.568;6.998;2023-02-22T08:40:32;6.65;99.99
64997;SHT31;51545;51.568;6.998;2023-02-22T08:42:59;6.49;99.99
64997;SHT31;51545;51.568;6.998;2023-02-22T08:45:25;6.41;99.99
64997;SHT31;51545;51.568;6.998;2023-02-22T08:47:51;6.55;99.99
64997;SHT31;51545;51.568;6.998;2023-02-22T08:50:19;6.73;99.99
64997;SHT31;51545;51.568;6.998;2023-02-22T08:52:50;6.76;99.99
64997;SHT31;51545;51.568;6.998;2023-02-22T08:55:20;6.89;99.99
64997;SHT31;51545;51.568;6.998;2023-02-22T08:57:47;6.78;99.99
64997;SHT31;51545;51.568;6.998;2023-02-22T09:00:12;6.89;99.99
64997;SHT31;51545;51.568;6.998;2023-02-22T09:02:39;7.03;99.99
64997;SHT31;51545;51.568;6.998;2023-02-22T09:05:05;7.06;99.99
64997;SHT31;51545;51.568;6.998;2023-02-22T09:07:31;6.96;99.99
64997;SHT31;51545;51.568;6.998;2023-02-22T09:09:57;7.09;99.99
64997;SHT31;51545;51.568;6.998;2023-02-22T09:12:22;7.13;99.99
64997;SHT31;51545;51.568;6.998;2023-02-22T09:14:48;7.13;99.99
64997;SHT31;51545;51.568;6.998;2023-02-22T09:17:13;7.09;99.99
64997;SHT31;51545;51.568;6.998;2023-02-22T09:19:38;7.20;99.99
64997;SHT31;51545;51.568;6.998;2023-02-22T09:22:04;7.31;99.69
64997;SHT31;51545;51.568;6.998;2023-02-22T09:24:29;7.51;99.67
64997;SHT31;51545;51.568;6.998;2023-02-22T09:26:55;7.73;99.54
64997;SHT31;51545;51.568;6.998;2023-02-22T09:29:21;8.04;99.41
64997;SHT31;51545;51.568;6.998;2023-02-22T09:31:48;8.13;98.68
64997;SHT31;51545;51.568;6.998;2023-02-22T09:34:16;8.32;98.38
64997;SHT31;51545;51.568;6.998;2023-02-22T09:36:44;8.45;97.68
64997;SHT31;51545;51.568;6.998;2023-02-22T09:39:11;8.21;96.15
64997;SHT31;51545;51.568;6.998;2023-02-22T09:46:51;8.32;94.93
64997;SHT31;51545;51.568;6.998;2023-02-22T09:54:38;9.25;94.37
64997;SHT31;51545;51.568;6.998;2023-02-22T09:57:09;9.05;92.90
64997;SHT31;51545;51.568;6.998;2023-02-22T09:59:45;9.05;92.55
64997;SHT31;51545;51.568;6.998;2023-02-22T10:02:29;9.49;92.07
64997;SHT31;51545;51.568;6.998;2023-02-22T10:05:02;9.84;91.22
64997;SHT31;51545;51.568;6.998;2023-02-22T10:07:53;10.29;90.17
64997;SHT31;51545;51.568;6.998;2023-02-22T10:10:24;10.49;88.45
64997;SHT31;51545;51.568;6.998;2023-02-22T10:13:41;10.72;87.34
64997;SHT31;51545;51.568;6.998;2023-02-22T10:16:19;10.32;87.51
64997;SHT31;51545;51.568;6.998;2023-02-22T10:24:53;10.69;88.26
64997;SHT31;51545;51.568;6.998;2023-02-22T10:27:46;10.93;88.01
64997;SHT31;51545;51.568;6.998;2023-02-22T10:30:19;10.97;85.48
64997;SHT31;51545;51.568;6.998;2023-02-22T10:32:52;11.45;85.77
64997;SHT31;51545;51.568;6.998;2023-02-22T10:37:53;11.83;84.32
64997;SHT31;51545;51.568;6.998;2023-02-22T10:40:23;12.01;84.18
64997;SHT31;51545;51.568;6.998;2023-02-22T10:43:00;12.21;83.05
64997;SHT31;51545;51.568;6.998;2023-02-22T10:45:28;11.99;82.81
64997;SHT31;51545;51.568;6.998;2023-02-22T10:48:12;12.22;83.29
64997;SHT31;51545;51.568;6.998;2023-02-22T10:50:42;12.48;81.43
64997;SHT31;51545;51.568;6.998;2023-02-22T10:53:10;12.70;81.25
64997;SHT31;51545;51.568;6.998;2023-02-22T10:55:37;12.60;81.34
64997;SHT31;51545;51.568;6.998;2023-02-22T10:58:41;12.84;79.51
64997;SHT31;51545;51.568;6.998;2023-02-22T11:01:20;12.83;79.04
64997;SHT31;51545;51.568;6.998;2023-02-22T11:03:57;13.33;78.48
64997;SHT31;51545;51.568;6.998;2023-02-22T11:06:34;13.63;77.92
64997;SHT31;51545;51.568;6.998;2023-02-22T11:09:08;13.29;78.96
64997;SHT31;51545;51.568;6.998;2023-02-22T11:11:36;13.39;79.28
64997;SHT31;51545;51.568;6.998;2023-02-22T11:14:02;13.14;78.25
64997;SHT31;51545;51.568;6.998;2023-02-22T11:16:31;13.26;77.66
64997;SHT31;51545;51.568;6.998;2023-02-22T11:19:00;13.67;76.95
64997;SHT31;51545;51.568;6.998;2023-02-22T11:21:40;13.95;76.76
64997;SHT31;51545;51.568;6.998;2023-02-22T11:24:07;14.23;75.07
64997;SHT31;51545;51.568;6.998;2023-02-22T11:26:36;14.08;75.44
64997;SHT31;51545;51.568;6.998;2023-02-22T11:29:12;14.40;75.08
64997;SHT31;51545;51.568;6.998;2023-02-22T11:31:50;14.55;73.39
64997;SHT31;51545;51.568;6.998;2023-02-22T11:36:55;15.29;70.75
64997;SHT31;51545;51.568;6.998;2023-02-22T11:41:49;15.61;71.47
64997;SHT31;51545;51.568;6.998;2023-02-22T11:46:52;16.18;66.16
64997;SHT31;51545;51.568;6.998;2023-02-22T11:49:20;15.50;68.20
64997;SHT31;51545;51.568;6.998;2023-02-22T11:57:17;17.37;66.65
64997;SHT31;51545;51.568;6.998;2023-02-22T12:00:14;17.12;64.75
64997;SHT31;51545;51.568;6.998;2023-02-22T12:20:11;17.51;62.31
64997;SHT31;51545;51.568;6.998;2023-02-22T12:28:24;16.83;65.05
64997;SHT31;51545;51.568;6.998;2023-02-22T12:31:02;17.04;64.08
64997;SHT31;51545;51.568;6.998;2023-02-22T12:36:16;17.50;62.02
64997;SHT31;51545;51.568;6.998;2023-02-22T12:38:51;16.78;63.54
64997;SHT31;51545;51.568;6.998;2023-02-22T12:41:29;17.63;62.39
64997;SHT31;51545;51.568;6.998;2023-02-22T12:44:07;17.18;62.41
64997;SHT31;51545;51.568;6.998;2023-02-22T12:51:36;17.30;62.48
64997;SHT31;51545;51.568;6.998;2023-02-22T12:54:20;17.35;61.10
64997;SHT31;51545;51.568;6.998;2023-02-22T12:57:10;17.18;62.36
64997;SHT31;51545;51.568;6.998;2023-02-22T13:00:00;16.99;60.72
64997;SHT31;51545;51.568;6.998;2023-02-22T13:02:29;17.25;60.36
64997;SHT31;51545;51.568;6.998;2023-02-22T13:05:01;17.39;58.89
64997;SHT31;51545;51.568;6.998;2023-02-22T13:07:33;16.77;57.55
64997;SHT31;51545;51.568;6.998;2023-02-22T13:18:37;17.15;55.94
64997;SHT31;51545;51.568;6.998;2023-02-22T13:21:15;16.94;55.85
64997;SHT31;51545;51.568;6.998;2023-02-22T13:24:20;16.81;57.71
64997;SHT31;51545;51.568;6.998;2023-02-22T13:26:49;17.14;56.85
64997;SHT31;51545;51.568;6.998;2023-02-22T13:29:24;17.32;54.72
64997;SHT31;51545;51.568;6.998;2023-02-22T13:32:09;16.68;55.99
64997;SHT31;51545;51.568;6.998;2023-02-22T13:35:09;16.30;57.70
64997;SHT31;51545;51.568;6.998;2023-02-22T13:40:41;16.65;56.88
64997;SHT31;51545;51.568;6.998;2023-02-22T13:48:35;16.71;56.66
64997;SHT31;51545;51.568;6.998;2023-02-22T13:51:07;16.56;57.66
64997;SHT31;51545;51.568;6.998;2023-02-22T13:53:58;16.44;57.83
64997;SHT31;51545;51.568;6.998;2023-02-22T13:56:27;16.43;56.20
64997;SHT31;51545;51.568;6.998;2023-02-22T13:58:57;16.39;54.48
64997;SHT31;51545;51.568;6.998;2023-02-22T14:01:44;16.43;52.75
64997;SHT31;51545;51.568;6.998;2023-02-22T14:17:36;16.11;56.28
64997;SHT31;51545;51.568;6.998;2023-02-22T14:20:05;15.98;56.25
64997;SHT31;51545;51.568;6.998;2023-02-22T14:22:49;16.15;56.51
64997;SHT31;51545;51.568;6.998;2023-02-22T14:25:36;16.16;56.93
64997;SHT31;51545;51.568;6.998;2023-02-22T14:28:07;16.72;56.06
64997;SHT31;51545;51.568;6.998;2023-02-22T14:31:03;17.27;55.37
64997;SHT31;51545;51.568;6.998;2023-02-22T14:33:50;16.99;55.07
64997;SHT31;51545;51.568;6.998;2023-02-22T14:36:25;16.99;56.14
64997;SHT31;51545;51.568;6.998;2023-02-22T14:39:07;17.20;56.32
64997;SHT31;51545;51.568;6.998;2023-02-22T14:41:52;16.57;56.13
64997;SHT31;51545;51.568;6.998;2023-02-22T14:44:26;16.40;57.56
64997;SHT31;51545;51.568;6.998;2023-02-22T14:46:58;16.30;56.71
64997;SHT31;51545;51.568;6.998;2023-02-22T14:49:29;16.22;57.15
64997;SHT31;51545;51.568;6.998;2023-02-22T14:52:01;16.16;58.38
64997;SHT31;51545;51.568;6.998;2023-02-22T14:54:38;16.21;59.03
64997;SHT31;51545;51.568;6.998;2023-02-22T15:00:05;15.42;58.94
64997;SHT31;51545;51.568;6.998;2023-02-22T15:02:44;15.38;59.44
64997;SHT31;51545;51.568;6.998;2023-02-22T15:05:14;15.36;60.21
64997;SHT31;51545;51.568;6.998;2023-02-22T15:08:00;15.39;60.47
64997;SHT31;51545;51.568;6.998;2023-02-22T15:10:30;15.12;61.77
64997;SHT31;51545;51.568;6.998;2023-02-22T15:13:12;14.95;62.84
64997;SHT31;51545;51.568;6.998;2023-02-22T15:15:41;14.87;63.96
64997;SHT31;51545;51.568;6.998;2023-02-22T15:20:55;14.66;64.79
64997;SHT31;51545;51.568;6.998;2023-02-22T15:23:23;14.69;65.04
64997;SHT31;51545;51.568;6.998;2023-02-22T15:25:53;14.66;65.43
64997;SHT31;51545;51.568;6.998;2023-02-22T15:28:19;14.66;65.50
64997;SHT31;51545;51.568;6.998;2023-02-22T15:30:48;14.66;67.33
64997;SHT31;51545;51.568;6.998;2023-02-22T15:33:16;14.53;66.01
64997;SHT31;51545;51.568;6.998;2023-02-22T15:35:52;14.52;66.14
64997;SHT31;51545;51.568;6.998;2023-02-22T15:38:20;14.50;66.79
64997;SHT31;51545;51.568;6.998;2023-02-22T15:40:59;14.50;66.67
64997;SHT31;51545;51.568;6.998;2023-02-22T15:43:28;14.48;66.72
64997;SHT31;51545;51.568;6.998;2023-02-22T15:45:54;14.44;66.93
64997;SHT31;51545;51.568;6.998;2023-02-22T15:48:21;14.44;67.56
64997;SHT31;51545;51.568;6.998;2023-02-22T15:51:09;14.46;67.81
64997;SHT31;51545;51.568;6.998;2023-02-22T15:53:44;14.44;67.82
64997;SHT31;51545;51.568;6.998;2023-02-22T15:56:30;14.33;67.84
64997;SHT31;51545;51.568;6.998;2023-02-22T15:59:00;14.32;68.66
64997;SHT31;51545;51.568;6.998;2023-02-22T16:01:35;14.26;69.12
64997;SHT31;51545;51.568;6.998;2023-02-22T16:04:05;14.30;69.20
64997;SHT31;51545;51.568;6.998;2023-02-22T16:06:34;14.23;69.32
64997;SHT31;51545;51.568;6.998;2023-02-22T16:09:09;14.12;69.83
64997;SHT31;51545;51.568;6.998;2023-02-22T16:11:39;14.12;70.12
64997;SHT31;51545;51.568;6.998;2023-02-22T16:14:27;14.00;70.52
64997;SHT31;51545;51.568;6.998;2023-02-22T16:17:55;14.00;70.48
64997;SHT31;51545;51.568;6.998;2023-02-22T16:22:36;13.91;71.90
64997;SHT31;51545;51.568;6.998;2023-02-22T16:25:37;13.88;71.35
64997;SHT31;51545;51.568;6.998;2023-02-22T16:28:01;13.83;71.71
64997;SHT31;51545;51.568;6.998;2023-02-22T16:32:58;13.76;72.44
64997;SHT31;51545;51.568;6.998;2023-02-22T16:35:29;13.76;72.59
64997;SHT31;51545;51.568;6.998;2023-02-22T16:38:00;13.74;72.59
64997;SHT31;51545;51.568;6.998;2023-02-22T16:43:13;13.66;72.95
64997;SHT31;51545;51.568;6.998;2023-02-22T16:45:41;13.64;73.20
64997;SHT31;51545;51.568;6.998;2023-02-22T16:48:14;13.59;73.40
64997;SHT31;51545;51.568;6.998;2023-02-22T16:50:45;13.50;73.66
64997;SHT31;51545;51.568;6.998;2023-02-22T16:53:11;13.49;74.01
64997;SHT31;51545;51.568;6.998;2023-02-22T16:55:38;13.42;74.42
64997;SHT31;51545;51.568;6.998;2023-02-22T16:58:08;13.40;74.42
64997;SHT31;51545;51.568;6.998;2023-02-22T17:00:36;13.38;74.22
64997;SHT31;51545;51.568;6.998;2023-02-22T17:03:02;13.39;74.35
64997;SHT31;51545;51.568;6.998;2023-02-22T17:05:32;13.35;75.01
64997;SHT31;51545;51.568;6.998;2023-02-22T17:08:01;13.32;74.72
64997;SHT31;51545;51.568;6.998;2023-02-22T17:10:28;13.28;75.15
64997;SHT31;51545;51.568;6.998;2023-02-22T17:12:53;13.14;75.43
64997;SHT31;51545;51.568;6.998;2023-02-22T17:15:24;13.12;75.70
64997;SHT31;51545;51.568;6.998;2023-02-22T17:17:54;13.10;75.66
64997;SHT31;51545;51.568;6.998;2023-02-22T17:20:21;13.01;76.05
64997;SHT31;51545;51.568;6.998;2023-02-22T17:23:00;12.98;76.19
64997;SHT31;51545;51.568;6.998;2023-02-22T17:25:29;12.95;76.22
64997;SHT31;51545;51.568;6.998;2023-02-22T17:27:57;13.01;76.04
64997;SHT31;51545;51.568;6.998;2023-02-22T17:30:22;12.98;76.22
64997;SHT31;51545;51.568;6.998;2023-02-22T17:32:48;12.95;76.43
64997;SHT31;51545;51.568;6.998;2023-02-22T17:35:15;12.87;76.99
64997;SHT31;51545;51.568;6.998;2023-02-22T17:37:44;12.81;77.07
64997;SHT31;51545;51.568;6.998;2023-02-22T17:40:13;12.74;77.43
64997;SHT31;51545;51.568;6.998;2023-02-22T17:42:39;12.67;77.90
64997;SHT31;51545;51.568;6.998;2023-02-22T17:45:06;12.57;78.34
64997;SHT31;51545;51.568;6.998;2023-02-22T17:47:32;12.49;78.46
64997;SHT31;51545;51.568;6.998;2023-02-22T17:49:58;12.50;78.57
64997;SHT31;51545;51.568;6.998;2023-02-22T17:52:23;12.53;78.68
64997;SHT31;51545;51.568;6.998;2023-02-22T17:54:49;12.53;78.88
64997;SHT31;51545;51.568;6.998;2023-02-22T17:57:15;12.55;79.23
64997;SHT31;51545;51.568;6.998;2023-02-22T17:59:40;12.50;79.21
64997;SHT31;51545;51.568;6.998;2023-02-22T18:02:06;12.46;79.49
64997;SHT31;51545;51.568;6.998;2023-02-22T18:04:34;12.43;79.48
64997;SHT31;51545;51.568;6.998;2023-02-22T18:07:00;12.42;79.76
64997;SHT31;51545;51.568;6.998;2023-02-22T18:09:28;12.42;79.85
64997;SHT31;51545;51.568;6.998;2023-02-22T18:11:53;12.31;80.21
64997;SHT31;51545;51.568;6.998;2023-02-22T18:14:19;12.28;79.97
64997;SHT31;51545;51.568;6.998;2023-02-22T18:16:45;12.22;80.28
64997;SHT31;51545;51.568;6.998;2023-02-22T18:19:11;12.15;80.39
64997;SHT31;51545;51.568;6.998;2023-02-22T18:21:36;12.14;80.46